sensor_id;sensor_type;location;lat;lon;timestamp;P1;durP1;ratioP1;P2;durP2;ratioP2
51594;SDS011;37677;53.254;6.594;2022-09-09T00:04:40;15.30;;;9.82;;
51594;SDS011;37677;53.254;6.594;2022-09-09T00:07:28;12.82;;;10.38;;
51594;SDS011;37677;53.254;6.594;2022-09-09T00:22:38;13.40;;;9.80;;
51594;SDS011;37677;53.254;6.594;2022-09-09T00:25:16;14.10;;;9.45;;
51594;SDS011;37677;53.254;6.594;2022-09-09T00:27:49;11.73;;;9.25;;
51594;SDS011;37677;53.254;6.594;2022-09-09T00:32:48;13.27;;;10.25;;
51594;SDS011;37677;53.254;6.594;2022-09-09T00:35:23;11.27;;;9.70;;
51594;SDS011;37677;53.254;6.594;2022-09-09T00:37:51;15.35;;;10.23;;
51594;SDS011;37677;53.254;6.594;2022-09-09T00:43:00;15.05;;;10.20;;
51594;SDS011;37677;53.254;6.594;2022-09-09T00:51:30;14.40;;;11.10;;
51594;SDS011;37677;53.254;6.594;2022-09-09T00:54:18;14.90;;;10.65;;
51594;SDS011;37677;53.254;6.594;2022-09-09T01:02:02;13.52;;;10.57;;
51594;SDS011;37677;53.254;6.594;2022-09-09T01:04:47;13.75;;;10.20;;
51594;SDS011;37677;53.254;6.594;2022-09-09T01:07:17;15.20;;;10.63;;
51594;SDS011;37677;53.254;6.594;2022-09-09T01:09:56;14.88;;;9.32;;
51594;SDS011;37677;53.254;6.594;2022-09-09T01:15:11;12.98;;;9.88;;
51594;SDS011;37677;53.254;6.594;2022-09-09T01:28:39;11.00;;;7.75;;
51594;SDS011;37677;53.254;6.594;2022-09-09T01:31:07;11.15;;;8.20;;
51594;SDS011;37677;53.254;6.594;2022-09-09T01:33:36;13.15;;;8.07;;
51594;SDS011;37677;53.254;6.594;2022-09-09T01:38:28;11.20;;;7.80;;
51594;SDS011;37677;53.254;6.594;2022-09-09T01:40:55;8.90;;;6.68;;
51594;SDS011;37677;53.254;6.594;2022-09-09T01:43:21;10.75;;;7.85;;
51594;SDS011;37677;53.254;6.594;2022-09-09T01:45:48;9.30;;;7.20;;
51594;SDS011;37677;53.254;6.594;2022-09-09T01:48:18;8.00;;;7.20;;
51594;SDS011;37677;53.254;6.594;2022-09-09T01:50:46;13.18;;;7.65;;
51594;SDS011;37677;53.254;6.594;2022-09-09T01:53:11;11.93;;;7.90;;
51594;SDS011;37677;53.254;6.594;2022-09-09T01:55:39;11.45;;;7.18;;
51594;SDS011;37677;53.254;6.594;2022-09-09T02:00:57;10.55;;;8.13;;
51594;SDS011;37677;53.254;6.594;2022-09-09T02:03:35;12.27;;;8.30;;
51594;SDS011;37677;53.254;6.594;2022-09-09T02:08:43;13.20;;;8.98;;
51594;SDS011;37677;53.254;6.594;2022-09-09T02:13:39;11.65;;;7.68;;
51594;SDS011;37677;53.254;6.594;2022-09-09T02:18:44;11.85;;;8.07;;
51594;SDS011;37677;53.254;6.594;2022-09-09T02:21:15;11.23;;;8.35;;
51594;SDS011;37677;53.254;6.594;2022-09-09T02:23:42;14.77;;;9.43;;
51594;SDS011;37677;53.254;6.594;2022-09-09T02:26:11;14.20;;;8.93;;
51594;SDS011;37677;53.254;6.594;2022-09-09T02:28:44;12.85;;;8.93;;
51594;SDS011;37677;53.254;6.594;2022-09-09T02:31:11;14.65;;;10.20;;
51594;SDS011;37677;53.254;6.594;2022-09-09T02:33:40;15.30;;;10.45;;
51594;SDS011;37677;53.254;6.594;2022-09-09T02:36:09;16.48;;;11.13;;
51594;SDS011;37677;53.254;6.594;2022-09-09T02:38:46;15.80;;;11.43;;
51594;SDS011;37677;53.254;6.594;2022-09-09T02:41:17;17.60;;;11.70;;
51594;SDS011;37677;53.254;6.594;2022-09-09T02:43:46;17.40;;;11.35;;
51594;SDS011;37677;53.254;6.594;2022-09-09T02:49:03;15.38;;;11.38;;
51594;SDS011;37677;53.254;6.594;2022-09-09T02:54:30;15.43;;;12.00;;
51594;SDS011;37677;53.254;6.594;2022-09-09T02:57:01;13.93;;;11.98;;
51594;SDS011;37677;53.254;6.594;2022-09-09T02:59:35;16.05;;;11.95;;
51594;SDS011;37677;53.254;6.594;2022-09-09T03:02:02;16.27;;;11.50;;
51594;SDS011;37677;53.254;6.594;2022-09-09T03:04:28;16.85;;;11.90;;
51594;SDS011;37677;53.254;6.594;2022-09-09T03:06:55;15.77;;;11.75;;
51594;SDS011;37677;53.254;6.594;2022-09-09T03:09:21;12.52;;;11.00;;
51594;SDS011;37677;53.254;6.594;2022-09-09T03:11:46;13.73;;;10.73;;
51594;SDS011;37677;53.254;6.594;2022-09-09T03:14:12;15.57;;;10.98;;
51594;SDS011;37677;53.254;6.594;2022-09-09T03:16:38;14.57;;;10.02;;
51594;SDS011;37677;53.254;6.594;2022-09-09T03:19:03;16.73;;;10.85;;
51594;SDS011;37677;53.254;6.594;2022-09-09T03:21:29;15.00;;;9.95;;
51594;SDS011;37677;53.254;6.594;2022-09-09T03:23:55;13.65;;;10.30;;
51594;SDS011;37677;53.254;6.594;2022-09-09T03:26:20;10.30;;;9.27;;
51594;SDS011;37677;53.254;6.594;2022-09-09T03:28:46;12.57;;;9.23;;
51594;SDS011;37677;53.254;6.594;2022-09-09T03:31:12;10.82;;;8.57;;
51594;SDS011;37677;53.254;6.594;2022-09-09T03:33:37;13.45;;;9.07;;
51594;SDS011;37677;53.254;6.594;2022-09-09T03:36:04;14.38;;;9.60;;
51594;SDS011;37677;53.254;6.594;2022-09-09T03:38:30;11.23;;;8.88;;
51594;SDS011;37677;53.254;6.594;2022-09-09T03:40:57;10.82;;;8.45;;
51594;SDS011;37677;53.254;6.594;2022-09-09T03:43:26;13.65;;;8.45;;
51594;SDS011;37677;53.254;6.594;2022-09-09T03:45:52;12.60;;;8.15;;
51594;SDS011;37677;53.254;6.594;2022-09-09T03:48:22;10.20;;;7.50;;
51594;SDS011;37677;53.254;6.594;2022-09-09T03:50:48;9.02;;;7.43;;
51594;SDS011;37677;53.254;6.594;2022-09-09T03:53:16;15.80;;;8.32;;
51594;SDS011;37677;53.254;6.594;2022-09-09T03:55:45;8.88;;;7.70;;
51594;SDS011;37677;53.254;6.594;2022-09-09T03:58:12;10.85;;;6.97;;
51594;SDS011;37677;53.254;6.594;2022-09-09T04:00:39;11.82;;;7.10;;
51594;SDS011;37677;53.254;6.594;2022-09-09T04:03:08;8.10;;;5.32;;
51594;SDS011;37677;53.254;6.594;2022-09-09T04:05:34;9.98;;;5.90;;
51594;SDS011;37677;53.254;6.594;2022-09-09T04:08:04;8.50;;;5.05;;
51594;SDS011;37677;53.254;6.594;2022-09-09T04:10:31;6.30;;;4.88;;
51594;SDS011;37677;53.254;6.594;2022-09-09T04:12:57;9.05;;;4.88;;
51594;SDS011;37677;53.254;6.594;2022-09-09T04:15:22;11.60;;;5.07;;
51594;SDS011;37677;53.254;6.594;2022-09-09T04:17:48;9.57;;;4.68;;
51594;SDS011;37677;53.254;6.594;2022-09-09T04:20:14;8.65;;;4.30;;
51594;SDS011;37677;53.254;6.594;2022-09-09T04:22:40;7.00;;;4.28;;
51594;SDS011;37677;53.254;6.594;2022-09-09T04:25:06;9.70;;;3.58;;
51594;SDS011;37677;53.254;6.594;2022-09-09T04:27:32;11.20;;;3.65;;
51594;SDS011;37677;53.254;6.594;2022-09-09T04:29:57;11.40;;;4.03;;
51594;SDS011;37677;53.254;6.594;2022-09-09T04:32:23;8.32;;;4.20;;
51594;SDS011;37677;53.254;6.594;2022-09-09T04:34:52;11.68;;;3.88;;
51594;SDS011;37677;53.254;6.594;2022-09-09T04:37:17;6.65;;;3.33;;
51594;SDS011;37677;53.254;6.594;2022-09-09T04:39:43;7.13;;;3.15;;
51594;SDS011;37677;53.254;6.594;2022-09-09T04:42:10;7.60;;;3.70;;
51594;SDS011;37677;53.254;6.594;2022-09-09T04:44:36;9.70;;;3.60;;
51594;SDS011;37677;53.254;6.594;2022-09-09T04:47:01;8.13;;;4.13;;
51594;SDS011;37677;53.254;6.594;2022-09-09T04:49:27;6.25;;;3.08;;
51594;SDS011;37677;53.254;6.594;2022-09-09T04:51:53;7.22;;;3.53;;
51594;SDS011;37677;53.254;6.594;2022-09-09T04:54:18;9.30;;;3.80;;
51594;SDS011;37677;53.254;6.594;2022-09-09T04:56:44;9.55;;;3.88;;
51594;SDS011;37677;53.254;6.594;2022-09-09T04:59:10;6.80;;;3.53;;
51594;SDS011;37677;53.254;6.594;2022-09-09T05:01:35;5.28;;;3.80;;
51594;SDS011;37677;53.254;6.594;2022-09-09T05:04:01;8.18;;;4.25;;
51594;SDS011;37677;53.254;6.594;2022-09-09T05:06:27;11.75;;;4.38;;
51594;SDS011;37677;53.254;6.594;2022-09-09T05:08:56;11.55;;;4.80;;
51594;SDS011;37677;53.254;6.594;2022-09-09T05:11:27;7.80;;;4.45;;
51594;SDS011;37677;53.254;6.594;2022-09-09T05:13:54;9.93;;;4.82;;
51594;SDS011;37677;53.254;6.594;2022-09-09T05:16:21;7.25;;;4.85;;
51594;SDS011;37677;53.254;6.594;2022-09-09T05:18:47;12.10;;;4.85;;
51594;SDS011;37677;53.254;6.594;2022-09-09T05:21:15;8.90;;;5.75;;
51594;SDS011;37677;53.254;6.594;2022-09-09T05:23:42;7.90;;;5.93;;
51594;SDS011;37677;53.254;6.594;2022-09-09T05:26:15;7.93;;;5.72;;
51594;SDS011;37677;53.254;6.594;2022-09-09T05:28:43;9.80;;;6.15;;
51594;SDS011;37677;53.254;6.594;2022-09-09T05:31:10;9.60;;;6.82;;
51594;SDS011;37677;53.254;6.594;2022-09-09T05:33:42;9.43;;;6.50;;
51594;SDS011;37677;53.254;6.594;2022-09-09T05:36:11;11.55;;;7.15;;
51594;SDS011;37677;53.254;6.594;2022-09-09T05:38:39;12.40;;;8.02;;
51594;SDS011;37677;53.254;6.594;2022-09-09T05:41:05;12.43;;;7.95;;
51594;SDS011;37677;53.254;6.594;2022-09-09T05:43:32;11.75;;;7.43;;
51594;SDS011;37677;53.254;6.594;2022-09-09T05:46:05;9.85;;;7.60;;
51594;SDS011;37677;53.254;6.594;2022-09-09T05:48:37;10.35;;;7.95;;
51594;SDS011;37677;53.254;6.594;2022-09-09T05:51:04;11.23;;;8.45;;
51594;SDS011;37677;53.254;6.594;2022-09-09T05:53:33;12.35;;;8.82;;
51594;SDS011;37677;53.254;6.594;2022-09-09T05:56:06;13.95;;;9.35;;
51594;SDS011;37677;53.254;6.594;2022-09-09T05:58:39;12.15;;;8.77;;
51594;SDS011;37677;53.254;6.594;2022-09-09T06:01:06;15.98;;;10.05;;
51594;SDS011;37677;53.254;6.594;2022-09-09T06:03:34;10.90;;;9.45;;
51594;SDS011;37677;53.254;6.594;2022-09-09T06:06:01;12.18;;;9.32;;
51594;SDS011;37677;53.254;6.594;2022-09-09T06:08:30;13.13;;;9.68;;
51594;SDS011;37677;53.254;6.594;2022-09-09T06:11:04;15.27;;;10.38;;
51594;SDS011;37677;53.254;6.594;2022-09-09T06:13:34;12.98;;;9.80;;
51594;SDS011;37677;53.254;6.594;2022-09-09T06:16:02;13.32;;;9.77;;
51594;SDS011;37677;53.254;6.594;2022-09-09T06:18:28;11.65;;;9.95;;
51594;SDS011;37677;53.254;6.594;2022-09-09T06:20:58;13.50;;;10.27;;
51594;SDS011;37677;53.254;6.594;2022-09-09T06:23:29;12.90;;;10.00;;
51594;SDS011;37677;53.254;6.594;2022-09-09T06:28:53;11.23;;;10.10;;
51594;SDS011;37677;53.254;6.594;2022-09-09T06:31:20;10.55;;;9.43;;
51594;SDS011;37677;53.254;6.594;2022-09-09T06:33:48;14.10;;;9.23;;
51594;SDS011;37677;53.254;6.594;2022-09-09T06:36:22;10.70;;;9.50;;
51594;SDS011;37677;53.254;6.594;2022-09-09T06:38:49;11.80;;;9.38;;
51594;SDS011;37677;53.254;6.594;2022-09-09T06:41:16;10.60;;;8.98;;
51594;SDS011;37677;53.254;6.594;2022-09-09T06:43:43;11.70;;;8.75;;
51594;SDS011;37677;53.254;6.594;2022-09-09T06:46:14;13.50;;;9.77;;
51594;SDS011;37677;53.254;6.594;2022-09-09T06:48:41;10.85;;;8.18;;
51594;SDS011;37677;53.254;6.594;2022-09-09T06:51:19;9.75;;;8.75;;
51594;SDS011;37677;53.254;6.594;2022-09-09T06:53:46;10.82;;;8.13;;
51594;SDS011;37677;53.254;6.594;2022-09-09T06:56:22;11.23;;;8.45;;
51594;SDS011;37677;53.254;6.594;2022-09-09T06:58:53;8.43;;;7.50;;
51594;SDS011;37677;53.254;6.594;2022-09-09T07:01:21;14.05;;;7.97;;
51594;SDS011;37677;53.254;6.594;2022-09-09T07:03:50;11.05;;;7.72;;
51594;SDS011;37677;53.254;6.594;2022-09-09T07:06:19;9.60;;;8.27;;
51594;SDS011;37677;53.254;6.594;2022-09-09T07:08:49;10.80;;;7.88;;
51594;SDS011;37677;53.254;6.594;2022-09-09T07:11:20;12.77;;;7.30;;
51594;SDS011;37677;53.254;6.594;2022-09-09T07:13:47;11.15;;;7.43;;
51594;SDS011;37677;53.254;6.594;2022-09-09T07:16:14;13.15;;;7.60;;
51594;SDS011;37677;53.254;6.594;2022-09-09T07:18:42;8.60;;;6.75;;
51594;SDS011;37677;53.254;6.594;2022-09-09T07:21:09;8.88;;;6.82;;
51594;SDS011;37677;53.254;6.594;2022-09-09T07:23:37;7.78;;;6.75;;
51594;SDS011;37677;53.254;6.594;2022-09-09T07:26:10;9.27;;;6.78;;
51594;SDS011;37677;53.254;6.594;2022-09-09T07:28:38;8.77;;;6.60;;
51594;SDS011;37677;53.254;6.594;2022-09-09T07:31:05;10.52;;;6.95;;
51594;SDS011;37677;53.254;6.594;2022-09-09T07:33:33;7.75;;;6.43;;
51594;SDS011;37677;53.254;6.594;2022-09-09T07:36:06;11.80;;;5.97;;
51594;SDS011;37677;53.254;6.594;2022-09-09T07:38:37;13.65;;;6.40;;
51594;SDS011;37677;53.254;6.594;2022-09-09T07:41:08;9.45;;;6.40;;
51594;SDS011;37677;53.254;6.594;2022-09-09T07:43:37;7.82;;;6.32;;
51594;SDS011;37677;53.254;6.594;2022-09-09T07:46:04;8.90;;;5.95;;
51594;SDS011;37677;53.254;6.594;2022-09-09T07:48:31;9.63;;;6.60;;
51594;SDS011;37677;53.254;6.594;2022-09-09T07:51:13;8.57;;;6.35;;
51594;SDS011;37677;53.254;6.594;2022-09-09T07:53:44;8.38;;;6.32;;
51594;SDS011;37677;53.254;6.594;2022-09-09T07:56:14;7.72;;;6.05;;
51594;SDS011;37677;53.254;6.594;2022-09-09T07:58:48;6.68;;;5.97;;
51594;SDS011;37677;53.254;6.594;2022-09-09T08:01:16;10.95;;;6.45;;
51594;SDS011;37677;53.254;6.594;2022-09-09T08:03:44;7.72;;;6.00;;
51594;SDS011;37677;53.254;6.594;2022-09-09T08:06:11;10.40;;;6.20;;
51594;SDS011;37677;53.254;6.594;2022-09-09T08:08:39;9.20;;;6.03;;
51594;SDS011;37677;53.254;6.594;2022-09-09T08:13:39;9.38;;;5.70;;
51594;SDS011;37677;53.254;6.594;2022-09-09T08:16:07;7.07;;;5.50;;
51594;SDS011;37677;53.254;6.594;2022-09-09T08:18:34;10.07;;;5.60;;
51594;SDS011;37677;53.254;6.594;2022-09-09T08:21:07;7.18;;;5.00;;
51594;SDS011;37677;53.254;6.594;2022-09-09T08:23:36;10.20;;;5.53;;
51594;SDS011;37677;53.254;6.594;2022-09-09T08:26:25;7.38;;;5.15;;
51594;SDS011;37677;53.254;6.594;2022-09-09T08:28:54;7.68;;;5.22;;
51594;SDS011;37677;53.254;6.594;2022-09-09T08:31:22;10.13;;;5.38;;
51594;SDS011;37677;53.254;6.594;2022-09-09T08:33:54;7.05;;;5.07;;
51594;SDS011;37677;53.254;6.594;2022-09-09T08:36:21;8.80;;;5.65;;
51594;SDS011;37677;53.254;6.594;2022-09-09T08:38:49;7.22;;;5.00;;
51594;SDS011;37677;53.254;6.594;2022-09-09T08:58:11;12.48;;;4.82;;
51594;SDS011;37677;53.254;6.594;2022-09-09T09:03:30;7.88;;;4.95;;
51594;SDS011;37677;53.254;6.594;2022-09-09T09:11:39;6.03;;;3.53;;
51594;SDS011;37677;53.254;6.594;2022-09-09T09:19:14;7.72;;;3.80;;
51594;SDS011;37677;53.254;6.594;2022-09-09T09:21:48;8.40;;;4.10;;
51594;SDS011;37677;53.254;6.594;2022-09-09T09:27:21;11.13;;;3.95;;
51594;SDS011;37677;53.254;6.594;2022-09-09T09:29:59;5.95;;;3.90;;
51594;SDS011;37677;53.254;6.594;2022-09-09T09:32:29;7.45;;;3.92;;
51594;SDS011;37677;53.254;6.594;2022-09-09T09:34:58;8.55;;;4.10;;
51594;SDS011;37677;53.254;6.594;2022-09-09T09:37:30;9.55;;;3.97;;
51594;SDS011;37677;53.254;6.594;2022-09-09T09:40:13;10.55;;;4.40;;
51594;SDS011;37677;53.254;6.594;2022-09-09T09:42:48;9.25;;;3.40;;
51594;SDS011;37677;53.254;6.594;2022-09-09T09:45:15;9.38;;;4.38;;
51594;SDS011;37677;53.254;6.594;2022-09-09T09:47:57;6.97;;;3.90;;
51594;SDS011;37677;53.254;6.594;2022-09-09T09:50:30;7.82;;;3.40;;
51594;SDS011;37677;53.254;6.594;2022-09-09T09:52:58;9.35;;;3.63;;
51594;SDS011;37677;53.254;6.594;2022-09-09T09:55:26;11.52;;;3.80;;
51594;SDS011;37677;53.254;6.594;2022-09-09T09:57:53;9.63;;;3.58;;
51594;SDS011;37677;53.254;6.594;2022-09-09T10:00:25;7.68;;;3.97;;
51594;SDS011;37677;53.254;6.594;2022-09-09T10:02:50;6.75;;;3.25;;
51594;SDS011;37677;53.254;6.594;2022-09-09T10:05:21;10.15;;;3.60;;
51594;SDS011;37677;53.254;6.594;2022-09-09T10:10:39;8.82;;;3.28;;
51594;SDS011;37677;53.254;6.594;2022-09-09T10:19:12;11.77;;;3.17;;
51594;SDS011;37677;53.254;6.594;2022-09-09T10:24:36;9.50;;;2.90;;
51594;SDS011;37677;53.254;6.594;2022-09-09T10:46:23;12.75;;;3.00;;
51594;SDS011;37677;53.254;6.594;2022-09-09T10:54:36;14.40;;;3.85;;
51594;SDS011;37677;53.254;6.594;2022-09-09T10:57:16;7.65;;;2.35;;
51594;SDS011;37677;53.254;6.594;2022-09-09T11:00:05;9.25;;;2.90;;
51594;SDS011;37677;53.254;6.594;2022-09-09T11:02:39;9.90;;;2.88;;
51594;SDS011;37677;53.254;6.594;2022-09-09T11:07:46;8.88;;;2.92;;
51594;SDS011;37677;53.254;6.594;2022-09-09T11:10:24;14.98;;;2.72;;
51594;SDS011;37677;53.254;6.594;2022-09-09T11:13:01;11.35;;;3.38;;
51594;SDS011;37677;53.254;6.594;2022-09-09T11:15:39;8.43;;;2.65;;
51594;SDS011;37677;53.254;6.594;2022-09-09T11:18:08;8.00;;;2.38;;
51594;SDS011;37677;53.254;6.594;2022-09-09T11:20:38;6.63;;;2.30;;
51594;SDS011;37677;53.254;6.594;2022-09-09T11:23:05;6.32;;;2.47;;
51594;SDS011;37677;53.254;6.594;2022-09-09T11:25:48;7.55;;;2.25;;
51594;SDS011;37677;53.254;6.594;2022-09-09T11:39:54;14.57;;;2.00;;
51594;SDS011;37677;53.254;6.594;2022-09-09T11:42:44;7.85;;;2.13;;
51594;SDS011;37677;53.254;6.594;2022-09-09T11:45:30;9.02;;;2.28;;
51594;SDS011;37677;53.254;6.594;2022-09-09T11:48:01;9.55;;;2.85;;
51594;SDS011;37677;53.254;6.594;2022-09-09T11:50:33;10.65;;;2.10;;
51594;SDS011;37677;53.254;6.594;2022-09-09T11:53:04;6.75;;;2.13;;
51594;SDS011;37677;53.254;6.594;2022-09-09T11:55:41;7.97;;;2.15;;
51594;SDS011;37677;53.254;6.594;2022-09-09T12:06:18;8.38;;;2.55;;
51594;SDS011;37677;53.254;6.594;2022-09-09T12:08:51;7.93;;;2.58;;
51594;SDS011;37677;53.254;6.594;2022-09-09T12:11:25;8.10;;;2.28;;
51594;SDS011;37677;53.254;6.594;2022-09-09T12:13:54;12.40;;;2.17;;
51594;SDS011;37677;53.254;6.594;2022-09-09T12:16:31;6.47;;;1.98;;
51594;SDS011;37677;53.254;6.594;2022-09-09T12:19:24;9.90;;;2.13;;
51594;SDS011;37677;53.254;6.594;2022-09-09T12:22:00;8.40;;;2.05;;
51594;SDS011;37677;53.254;6.594;2022-09-09T12:27:20;4.63;;;1.70;;
51594;SDS011;37677;53.254;6.594;2022-09-09T12:30:11;7.88;;;1.95;;
51594;SDS011;37677;53.254;6.594;2022-09-09T12:32:40;6.82;;;2.10;;
51594;SDS011;37677;53.254;6.594;2022-09-09T12:35:10;8.23;;;2.03;;
51594;SDS011;37677;53.254;6.594;2022-09-09T12:37:51;5.07;;;1.98;;
51594;SDS011;37677;53.254;6.594;2022-09-09T12:42:54;7.60;;;1.95;;
51594;SDS011;37677;53.254;6.594;2022-09-09T12:45:24;7.43;;;2.00;;
51594;SDS011;37677;53.254;6.594;2022-09-09T12:50:29;5.85;;;1.80;;
51594;SDS011;37677;53.254;6.594;2022-09-09T12:52:57;8.65;;;2.10;;
51594;SDS011;37677;53.254;6.594;2022-09-09T12:55:30;4.57;;;2.05;;
51594;SDS011;37677;53.254;6.594;2022-09-09T12:57:58;8.80;;;2.78;;
51594;SDS011;37677;53.254;6.594;2022-09-09T13:00:26;11.57;;;2.50;;
51594;SDS011;37677;53.254;6.594;2022-09-09T13:02:57;6.85;;;2.20;;
51594;SDS011;37677;53.254;6.594;2022-09-09T13:05:35;7.18;;;2.08;;
51594;SDS011;37677;53.254;6.594;2022-09-09T13:08:08;7.55;;;1.70;;
51594;SDS011;37677;53.254;6.594;2022-09-09T13:10:37;5.60;;;1.75;;
51594;SDS011;37677;53.254;6.594;2022-09-09T13:13:16;7.00;;;1.85;;
51594;SDS011;37677;53.254;6.594;2022-09-09T13:15:52;6.93;;;1.80;;
51594;SDS011;37677;53.254;6.594;2022-09-09T13:18:28;10.13;;;2.20;;
51594;SDS011;37677;53.254;6.594;2022-09-09T13:20:56;8.00;;;2.00;;
51594;SDS011;37677;53.254;6.594;2022-09-09T13:23:23;7.18;;;2.05;;
51594;SDS011;37677;53.254;6.594;2022-09-09T13:26:00;5.45;;;2.03;;
51594;SDS011;37677;53.254;6.594;2022-09-09T13:28:32;8.82;;;2.38;;
51594;SDS011;37677;53.254;6.594;2022-09-09T13:31:03;7.47;;;2.08;;
51594;SDS011;37677;53.254;6.594;2022-09-09T13:33:38;6.65;;;2.00;;
51594;SDS011;37677;53.254;6.594;2022-09-09T13:38:38;9.07;;;3.28;;
51594;SDS011;37677;53.254;6.594;2022-09-09T13:41:22;6.07;;;1.80;;
51594;SDS011;37677;53.254;6.594;2022-09-09T13:43:49;6.93;;;2.45;;
51594;SDS011;37677;53.254;6.594;2022-09-09T13:54:03;13.35;;;1.70;;
51594;SDS011;37677;53.254;6.594;2022-09-09T13:56:34;6.15;;;1.88;;
51594;SDS011;37677;53.254;6.594;2022-09-09T13:59:02;7.03;;;1.85;;
51594;SDS011;37677;53.254;6.594;2022-09-09T14:01:29;7.07;;;2.05;;
51594;SDS011;37677;53.254;6.594;2022-09-09T14:03:56;7.00;;;2.00;;
51594;SDS011;37677;53.254;6.594;2022-09-09T14:06:21;8.90;;;2.40;;
51594;SDS011;37677;53.254;6.594;2022-09-09T14:08:51;7.43;;;2.00;;
51594;SDS011;37677;53.254;6.594;2022-09-09T14:11:17;8.52;;;2.53;;
51594;SDS011;37677;53.254;6.594;2022-09-09T14:13:43;8.90;;;1.80;;
51594;SDS011;37677;53.254;6.594;2022-09-09T14:16:09;3.72;;;1.55;;
51594;SDS011;37677;53.254;6.594;2022-09-09T14:18:35;5.38;;;1.48;;
51594;SDS011;37677;53.254;6.594;2022-09-09T14:21:02;4.93;;;1.30;;
51594;SDS011;37677;53.254;6.594;2022-09-09T14:23:28;4.07;;;1.27;;
51594;SDS011;37677;53.254;6.594;2022-09-09T14:25:54;5.20;;;1.30;;
51594;SDS011;37677;53.254;6.594;2022-09-09T14:28:20;6.75;;;1.40;;
51594;SDS011;37677;53.254;6.594;2022-09-09T14:30:46;5.53;;;1.00;;
51594;SDS011;37677;53.254;6.594;2022-09-09T14:33:14;3.40;;;1.20;;
51594;SDS011;37677;53.254;6.594;2022-09-09T14:35:41;4.70;;;1.55;;
51594;SDS011;37677;53.254;6.594;2022-09-09T14:38:07;2.95;;;1.42;;
51594;SDS011;37677;53.254;6.594;2022-09-09T14:40:34;4.57;;;1.42;;
51594;SDS011;37677;53.254;6.594;2022-09-09T14:43:01;3.00;;;1.17;;
51594;SDS011;37677;53.254;6.594;2022-09-09T14:45:28;3.80;;;1.08;;
51594;SDS011;37677;53.254;6.594;2022-09-09T14:47:54;2.85;;;1.17;;
51594;SDS011;37677;53.254;6.594;2022-09-09T14:50:20;2.75;;;0.98;;
51594;SDS011;37677;53.254;6.594;2022-09-09T14:52:46;2.97;;;1.42;;
51594;SDS011;37677;53.254;6.594;2022-09-09T14:55:12;3.05;;;1.02;;
51594;SDS011;37677;53.254;6.594;2022-09-09T14:57:38;13.07;;;1.92;;
51594;SDS011;37677;53.254;6.594;2022-09-09T15:00:05;14.15;;;3.10;;
51594;SDS011;37677;53.254;6.594;2022-09-09T15:02:32;5.40;;;1.38;;
51594;SDS011;37677;53.254;6.594;2022-09-09T15:04:58;3.08;;;1.20;;
51594;SDS011;37677;53.254;6.594;2022-09-09T15:07:24;3.00;;;1.17;;
51594;SDS011;37677;53.254;6.594;2022-09-09T15:09:51;4.13;;;1.00;;
51594;SDS011;37677;53.254;6.594;2022-09-09T15:12:17;3.05;;;1.30;;
51594;SDS011;37677;53.254;6.594;2022-09-09T15:14:44;3.60;;;1.40;;
51594;SDS011;37677;53.254;6.594;2022-09-09T15:17:10;6.38;;;1.65;;
51594;SDS011;37677;53.254;6.594;2022-09-09T15:19:37;4.80;;;1.52;;
51594;SDS011;37677;53.254;6.594;2022-09-09T15:22:03;4.25;;;1.80;;
51594;SDS011;37677;53.254;6.594;2022-09-09T15:24:32;4.80;;;1.90;;
51594;SDS011;37677;53.254;6.594;2022-09-09T15:26:58;4.75;;;2.08;;
51594;SDS011;37677;53.254;6.594;2022-09-09T15:29:24;5.60;;;1.75;;
51594;SDS011;37677;53.254;6.594;2022-09-09T15:32:03;7.85;;;2.28;;
51594;SDS011;37677;53.254;6.594;2022-09-09T15:34:29;10.25;;;2.55;;
51594;SDS011;37677;53.254;6.594;2022-09-09T15:36:55;5.95;;;2.00;;
51594;SDS011;37677;53.254;6.594;2022-09-09T15:39:20;7.30;;;2.22;;
51594;SDS011;37677;53.254;6.594;2022-09-09T15:41:47;5.97;;;1.98;;
51594;SDS011;37677;53.254;6.594;2022-09-09T15:44:13;6.22;;;2.03;;
51594;SDS011;37677;53.254;6.594;2022-09-09T15:46:48;7.35;;;2.28;;
51594;SDS011;37677;53.254;6.594;2022-09-09T15:49:19;5.65;;;2.15;;
51594;SDS011;37677;53.254;6.594;2022-09-09T15:51:53;6.22;;;2.00;;
51594;SDS011;37677;53.254;6.594;2022-09-09T15:54:24;4.40;;;1.70;;
51594;SDS011;37677;53.254;6.594;2022-09-09T15:56:52;5.38;;;1.80;;
51594;SDS011;37677;53.254;6.594;2022-09-09T15:59:20;4.05;;;1.33;;
51594;SDS011;37677;53.254;6.594;2022-09-09T16:01:50;3.72;;;1.50;;
51594;SDS011;37677;53.254;6.594;2022-09-09T16:04:17;4.50;;;1.70;;
51594;SDS011;37677;53.254;6.594;2022-09-09T16:06:55;6.65;;;1.95;;
51594;SDS011;37677;53.254;6.594;2022-09-09T16:09:27;5.30;;;1.73;;
51594;SDS011;37677;53.254;6.594;2022-09-09T16:11:55;5.38;;;1.50;;
51594;SDS011;37677;53.254;6.594;2022-09-09T16:14:25;3.13;;;1.20;;
51594;SDS011;37677;53.254;6.594;2022-09-09T16:16:52;6.15;;;1.50;;
51594;SDS011;37677;53.254;6.594;2022-09-09T16:19:18;3.83;;;1.50;;
51594;SDS011;37677;53.254;6.594;2022-09-09T16:21:45;3.95;;;1.33;;
51594;SDS011;37677;53.254;6.594;2022-09-09T16:24:14;2.97;;;1.27;;
51594;SDS011;37677;53.254;6.594;2022-09-09T16:26:43;3.83;;;1.38;;
51594;SDS011;37677;53.254;6.594;2022-09-09T16:29:11;4.80;;;2.03;;
51594;SDS011;37677;53.254;6.594;2022-09-09T16:31:37;3.78;;;1.50;;
51594;SDS011;37677;53.254;6.594;2022-09-09T16:34:04;4.80;;;1.67;;
51594;SDS011;37677;53.254;6.594;2022-09-09T16:36:31;4.57;;;1.60;;
51594;SDS011;37677;53.254;6.594;2022-09-09T16:39:01;5.28;;;1.85;;
51594;SDS011;37677;53.254;6.594;2022-09-09T16:41:29;5.63;;;1.67;;
51594;SDS011;37677;53.254;6.594;2022-09-09T16:43:56;5.10;;;2.00;;
51594;SDS011;37677;53.254;6.594;2022-09-09T16:46:25;3.42;;;1.48;;
51594;SDS011;37677;53.254;6.594;2022-09-09T16:48:52;6.63;;;1.85;;
51594;SDS011;37677;53.254;6.594;2022-09-09T16:53:45;5.70;;;1.95;;
51594;SDS011;37677;53.254;6.594;2022-09-09T16:56:14;5.47;;;1.80;;
51594;SDS011;37677;53.254;6.594;2022-09-09T16:58:42;2.72;;;1.33;;
51594;SDS011;37677;53.254;6.594;2022-09-09T17:01:08;5.10;;;1.75;;
51594;SDS011;37677;53.254;6.594;2022-09-09T17:03:36;4.78;;;1.77;;
51594;SDS011;37677;53.254;6.594;2022-09-09T17:06:02;5.10;;;1.77;;
51594;SDS011;37677;53.254;6.594;2022-09-09T17:08:33;6.88;;;1.77;;
51594;SDS011;37677;53.254;6.594;2022-09-09T17:10:59;5.95;;;1.88;;
51594;SDS011;37677;53.254;6.594;2022-09-09T17:13:24;4.13;;;1.70;;
51594;SDS011;37677;53.254;6.594;2022-09-09T17:15:50;4.03;;;1.73;;
51594;SDS011;37677;53.254;6.594;2022-09-09T17:18:16;3.20;;;1.92;;
51594;SDS011;37677;53.254;6.594;2022-09-09T17:20:42;5.95;;;2.33;;
51594;SDS011;37677;53.254;6.594;2022-09-09T17:23:09;5.70;;;1.73;;
51594;SDS011;37677;53.254;6.594;2022-09-09T17:25:36;6.13;;;1.83;;
51594;SDS011;37677;53.254;6.594;2022-09-09T17:28:03;5.85;;;1.70;;
51594;SDS011;37677;53.254;6.594;2022-09-09T17:30:35;3.15;;;1.60;;
51594;SDS011;37677;53.254;6.594;2022-09-09T17:33:02;4.28;;;1.70;;
51594;SDS011;37677;53.254;6.594;2022-09-09T17:35:28;3.90;;;1.63;;
51594;SDS011;37677;53.254;6.594;2022-09-09T17:37:55;4.90;;;2.13;;
51594;SDS011;37677;53.254;6.594;2022-09-09T17:40:21;3.88;;;1.70;;
51594;SDS011;37677;53.254;6.594;2022-09-09T17:42:47;5.32;;;1.58;;
51594;SDS011;37677;53.254;6.594;2022-09-09T17:45:13;4.20;;;1.73;;
51594;SDS011;37677;53.254;6.594;2022-09-09T17:47:39;4.90;;;1.70;;
51594;SDS011;37677;53.254;6.594;2022-09-09T17:50:08;3.60;;;1.65;;
51594;SDS011;37677;53.254;6.594;2022-09-09T17:52:35;5.55;;;1.88;;
51594;SDS011;37677;53.254;6.594;2022-09-09T17:55:03;4.00;;;2.15;;
51594;SDS011;37677;53.254;6.594;2022-09-09T17:57:29;3.78;;;1.77;;